createdAt,value
2019-02-15T00:02:24.861Z,79.60
2019-02-15T00:04:53.236Z,79.80
2019-02-15T00:07:21.624Z,80.30
2019-02-15T00:09:49.999Z,80.20
2019-02-15T00:12:18.370Z,79.90
2019-02-15T00:14:48.663Z,79.50
2019-02-15T00:17:18.692Z,79.20
2019-02-15T00:19:48.703Z,79.10
2019-02-15T00:22:17.080Z,78.70
2019-02-15T00:24:45.544Z,78.70
2019-02-15T00:27:13.935Z,77.90
2019-02-15T00:29:42.317Z,78.00
2019-02-15T00:32:10.764Z,78.00
2019-02-15T00:34:39.159Z,78.10
2019-02-15T00:37:07.588Z,78.10
2019-02-15T00:39:35.980Z,78.50
2019-02-15T00:42:04.366Z,78.60
2019-02-15T00:44:32.748Z,78.90
2019-02-15T00:47:02.776Z,79.20
2019-02-15T00:49:33.036Z,79.10
2019-02-15T00:52:03.064Z,78.90
2019-02-15T00:54:33.094Z,78.70
2019-02-15T00:57:18.105Z,79.10
2019-02-15T00:59:48.141Z,79.20
2019-02-15T01:02:30.053Z,79.80
2019-02-15T01:05:00.079Z,80.20
2019-02-15T01:07:32.612Z,80.50
2019-02-15T01:10:05.691Z,80.10
2019-02-15T01:12:35.727Z,80.10
2019-02-15T01:15:04.536Z,80.00
2019-02-15T01:17:32.907Z,79.50
2019-02-15T01:20:01.287Z,79.60
2019-02-15T01:22:29.672Z,79.30
2019-02-15T01:24:58.925Z,79.40
2019-02-15T01:27:31.975Z,79.40
2019-02-15T01:30:17.367Z,79.30
2019-02-15T01:32:53.089Z,79.20
2019-02-15T01:35:23.123Z,80.00
2019-02-15T01:37:56.056Z,79.70
2019-02-15T01:40:32.216Z,79.40
2019-02-15T01:45:50.127Z,80.00
2019-02-15T01:48:18.516Z,80.30
2019-02-15T01:50:46.891Z,79.60
2019-02-15T01:53:15.281Z,79.50
2019-02-15T01:55:43.667Z,79.10
2019-02-15T01:58:12.055Z,78.80
2019-02-15T02:00:40.494Z,78.80
2019-02-15T02:03:08.891Z,78.50
2019-02-15T02:05:37.265Z,78.10
2019-02-15T02:08:06.307Z,78.00
2019-02-15T02:10:34.696Z,77.50
2019-02-15T02:13:22.412Z,77.30
2019-02-15T02:15:50.868Z,76.90
2019-02-15T02:18:19.238Z,77.30
2019-02-15T02:20:47.627Z,77.40
2019-02-15T02:23:16.008Z,77.10
2019-02-15T02:25:44.402Z,77.30
2019-02-15T02:28:12.780Z,77.20
2019-02-15T02:30:41.173Z,78.10
2019-02-15T02:33:09.551Z,78.40
2019-02-15T02:35:37.927Z,78.80
2019-02-15T02:38:06.299Z,79.40
2019-02-15T02:40:34.687Z,80.30
2019-02-15T02:43:22.412Z,81.20
2019-02-15T02:45:50.792Z,81.30
2019-02-15T02:48:19.171Z,81.50
2019-02-15T02:50:47.548Z,81.50
2019-02-15T02:53:15.936Z,81.10
2019-02-15T02:55:44.316Z,81.20
2019-02-15T02:58:12.696Z,81.50
2019-02-15T03:00:41.082Z,81.90
2019-02-15T03:03:09.476Z,82.60
2019-02-15T03:05:37.848Z,82.60
2019-02-15T03:08:06.228Z,82.30
2019-02-15T03:10:34.611Z,82.40
2019-02-15T03:13:02.987Z,81.50
2019-02-15T03:15:31.371Z,81.30
2019-02-15T03:17:59.755Z,80.60
2019-02-15T03:20:31.165Z,80.60
2019-02-15T03:22:58.232Z,80.90
2019-02-15T03:25:26.620Z,80.50
2019-02-15T03:27:55.009Z,80.40
2019-02-15T03:30:23.401Z,80.30
2019-02-15T03:32:51.776Z,80.20
2019-02-15T03:35:20.153Z,80.20
2019-02-15T03:37:55.885Z,80.10
2019-02-15T03:40:25.921Z,80.40
2019-02-15T03:42:54.293Z,80.20
2019-02-15T03:45:22.685Z,80.10
2019-02-15T03:47:51.052Z,80.00
2019-02-15T03:50:19.434Z,80.00
2019-02-15T03:52:47.825Z,79.80
2019-02-15T03:55:16.272Z,79.00
2019-02-15T03:57:44.648Z,78.20
2019-02-15T04:00:13.477Z,78.00
2019-02-15T04:02:41.862Z,78.10
2019-02-15T04:05:11.898Z,77.30
2019-02-15T04:07:40.284Z,77.20
2019-02-15T04:10:09.411Z,77.50
2019-02-15T04:12:37.800Z,77.60
2019-02-15T04:15:07.417Z,77.50
2019-02-15T04:17:35.803Z,78.00
2019-02-15T04:20:06.190Z,78.10
2019-02-15T04:22:34.571Z,78.40
2019-02-15T04:25:03.020Z,78.40
2019-02-15T04:27:31.412Z,78.50
2019-02-15T04:29:59.784Z,78.60
2019-02-15T04:32:28.164Z,78.60
2019-02-15T04:34:56.549Z,78.50
2019-02-15T04:37:24.932Z,78.40
2019-02-15T04:39:53.312Z,78.40
2019-02-15T04:42:21.700Z,79.00
2019-02-15T04:44:50.091Z,79.50
2019-02-15T04:47:18.476Z,80.00
2019-02-15T04:49:46.869Z,79.90
2019-02-15T04:52:15.255Z,79.40
2019-02-15T04:54:43.628Z,79.30
2019-02-15T04:57:12.017Z,79.70
2019-02-15T04:59:40.391Z,80.00
2019-02-15T05:02:08.796Z,79.80
2019-02-15T05:04:37.187Z,79.90
2019-02-15T05:07:05.571Z,79.40
2019-02-15T05:09:33.960Z,79.30
2019-02-15T05:12:02.352Z,79.60
2019-02-15T05:14:30.730Z,79.40
2019-02-15T05:16:59.099Z,79.40
2019-02-15T05:19:27.488Z,79.60
2019-02-15T05:21:55.866Z,79.40
2019-02-15T05:24:24.244Z,79.60
2019-02-15T05:26:52.629Z,79.70
2019-02-15T05:29:21.023Z,80.00
2019-02-15T05:31:49.391Z,80.00
2019-02-15T05:34:17.791Z,80.00
2019-02-15T05:36:46.168Z,80.00
2019-02-15T05:39:14.543Z,80.50
2019-02-15T05:41:44.339Z,81.00
2019-02-15T05:44:12.712Z,81.90
2019-02-15T05:46:41.110Z,82.20
2019-02-15T05:49:15.391Z,82.40
2019-02-15T05:51:43.796Z,83.20
2019-02-15T05:54:12.172Z,83.60
2019-02-15T05:56:40.550Z,83.80
2019-02-15T05:59:08.928Z,83.90
2019-02-15T06:01:37.480Z,83.70
2019-02-15T06:04:05.864Z,83.90
2019-02-15T06:06:34.536Z,84.20
2019-02-15T06:09:04.695Z,84.90
2019-02-15T06:11:37.160Z,84.70
2019-02-15T06:14:03.179Z,84.50
2019-02-15T06:16:31.551Z,85.10
2019-02-15T06:18:59.940Z,85.60
2019-02-15T06:21:28.319Z,86.40
2019-02-15T06:23:56.703Z,86.60
2019-02-15T06:26:25.093Z,86.70
2019-02-15T06:28:53.465Z,87.00
2019-02-15T06:31:21.848Z,87.40
2019-02-15T06:33:50.229Z,87.80
2019-02-15T06:36:18.608Z,88.10
2019-02-15T06:38:46.983Z,87.90
2019-02-15T06:41:15.380Z,87.80
2019-02-15T06:43:43.739Z,88.30
2019-02-15T06:46:12.115Z,88.30
2019-02-15T06:48:40.499Z,88.20
2019-02-15T06:51:08.863Z,87.70
2019-02-15T06:53:37.248Z,87.50
2019-02-15T06:56:05.632Z,87.30
2019-02-15T06:58:35.188Z,87.40
2019-02-15T07:01:11.257Z,87.30
2019-02-15T07:03:41.280Z,87.40
2019-02-15T07:06:09.653Z,87.50
2019-02-15T07:08:38.049Z,87.00
2019-02-15T07:11:06.449Z,86.40
2019-02-15T07:13:34.815Z,86.10
2019-02-15T07:16:03.200Z,85.70
2019-02-15T07:18:31.584Z,85.10
2019-02-15T07:20:59.959Z,84.70
2019-02-15T07:23:28.344Z,84.10
2019-02-15T07:25:56.735Z,83.70
2019-02-15T07:28:25.108Z,82.90
2019-02-15T07:30:53.479Z,82.20
2019-02-15T07:33:21.873Z,81.50
2019-02-15T07:35:50.260Z,80.60
2019-02-15T07:38:18.637Z,79.90
2019-02-15T07:40:47.020Z,79.20
2019-02-15T07:43:15.397Z,78.80
2019-02-15T07:45:43.779Z,78.70
2019-02-15T07:48:12.158Z,78.70
2019-02-15T07:50:40.527Z,78.70
2019-02-15T07:53:09.187Z,78.40
2019-02-15T07:55:37.779Z,78.30
2019-02-15T07:58:06.172Z,77.90
2019-02-15T08:00:34.541Z,77.60
2019-02-15T08:03:02.931Z,77.70
2019-02-15T08:05:31.313Z,75.90
2019-02-15T08:07:59.703Z,70.90
2019-02-15T08:10:28.084Z,66.40
2019-02-15T08:12:56.471Z,62.80
2019-02-15T08:15:24.843Z,59.60
2019-02-15T08:17:53.231Z,58.10
2019-02-15T08:20:21.616Z,55.60
2019-02-15T08:22:49.995Z,54.00
2019-02-15T08:25:18.405Z,52.30
2019-02-15T08:27:46.792Z,50.90
2019-02-15T08:30:15.184Z,50.20
2019-02-15T08:32:43.564Z,49.40
2019-02-15T08:35:11.954Z,48.10
2019-02-15T08:37:40.336Z,47.50
2019-02-15T08:40:10.646Z,47.30
2019-02-15T08:42:39.036Z,47.10
2019-02-15T08:45:12.237Z,47.60
2019-02-15T08:47:40.992Z,48.10
2019-02-15T08:50:11.108Z,48.30
2019-02-15T08:52:39.571Z,48.80
2019-02-15T08:55:09.987Z,48.80
2019-02-15T08:57:38.375Z,48.80
2019-02-15T09:00:09.569Z,49.00
2019-02-15T09:02:37.947Z,49.20
2019-02-15T09:05:08.672Z,48.60
2019-02-15T09:07:37.068Z,48.90
2019-02-15T09:10:08.394Z,48.90
2019-02-15T09:12:36.784Z,48.10
2019-02-15T09:15:08.245Z,48.10
2019-02-15T09:17:36.636Z,46.90
2019-02-15T09:20:08.260Z,47.00
2019-02-15T09:22:36.652Z,46.80
2019-02-15T09:25:07.072Z,47.00
2019-02-15T09:27:37.098Z,45.40
2019-02-15T09:30:08.595Z,45.10
2019-02-15T09:32:36.992Z,45.10
2019-02-15T09:35:08.330Z,44.30
2019-02-15T09:37:36.706Z,43.40
2019-02-15T09:40:07.335Z,43.30
2019-02-15T09:42:35.715Z,43.10
2019-02-15T09:45:05.924Z,43.40
2019-02-15T09:47:34.312Z,42.20
2019-02-15T09:50:02.992Z,41.70
2019-02-15T09:52:31.375Z,40.30
2019-02-15T09:54:59.763Z,39.70
2019-02-15T09:57:28.152Z,39.70
2019-02-15T09:59:56.545Z,39.90
2019-02-15T10:02:24.945Z,39.60
2019-02-15T10:04:53.332Z,38.60
2019-02-15T10:07:21.711Z,37.90
2019-02-15T10:09:50.100Z,37.30
2019-02-15T10:12:18.508Z,36.60
2019-02-15T10:14:46.875Z,36.00
2019-02-15T10:17:15.275Z,36.20
2019-02-15T10:19:43.656Z,36.00
2019-02-15T10:22:12.041Z,35.50
2019-02-15T10:24:40.423Z,35.10
2019-02-15T10:27:08.815Z,35.40
2019-02-15T10:29:37.196Z,34.50
2019-02-15T10:32:05.592Z,35.00
2019-02-15T10:34:33.972Z,34.80
2019-02-15T10:37:02.349Z,35.50
2019-02-15T10:39:30.743Z,35.90
2019-02-15T10:41:59.131Z,35.40
2019-02-15T10:44:27.523Z,36.10
2019-02-15T10:46:55.903Z,35.00
2019-02-15T10:49:24.292Z,34.80
2019-02-15T10:51:52.668Z,33.80
2019-02-15T10:54:21.102Z,32.20
2019-02-15T10:56:49.511Z,33.00
2019-02-15T10:59:17.895Z,32.30
2019-02-15T11:01:46.300Z,32.40
2019-02-15T11:04:14.676Z,32.20
2019-02-15T11:06:43.057Z,32.00
2019-02-15T11:09:12.414Z,31.40
2019-02-15T11:11:40.798Z,30.80
2019-02-15T11:14:09.184Z,30.50
2019-02-15T11:16:46.782Z,31.40
2019-02-15T11:19:07.676Z,30.90
2019-02-15T11:21:36.052Z,29.90
2019-02-15T11:24:04.432Z,30.70
2019-02-15T11:26:32.824Z,30.40
2019-02-15T11:29:01.196Z,30.50
2019-02-15T11:31:48.928Z,30.20
2019-02-15T11:34:17.308Z,29.70
2019-02-15T11:36:45.692Z,29.00
2019-02-15T11:39:14.067Z,29.10
2019-02-15T11:41:42.468Z,29.30
2019-02-15T11:44:10.842Z,29.20
2019-02-15T11:46:39.215Z,28.70
2019-02-15T11:49:07.603Z,28.90
2019-02-15T11:51:35.984Z,28.60
2019-02-15T11:54:04.385Z,28.30
2019-02-15T11:56:32.929Z,28.10
2019-02-15T11:59:01.309Z,27.90
2019-02-15T12:01:29.698Z,27.30
2019-02-15T12:03:58.076Z,26.90
2019-02-15T12:06:26.472Z,27.50
2019-02-15T12:08:54.847Z,27.50
2019-02-15T12:11:23.243Z,27.80
2019-02-15T12:13:51.623Z,27.80
2019-02-15T12:16:20.017Z,28.20
2019-02-15T12:18:48.392Z,28.20
2019-02-15T12:21:16.803Z,27.80
2019-02-15T12:23:45.420Z,28.10
2019-02-15T12:26:13.812Z,27.70
2019-02-15T12:28:42.187Z,27.30
2019-02-15T12:31:10.572Z,27.30
2019-02-15T12:33:38.948Z,27.60
2019-02-15T12:36:07.337Z,27.70
2019-02-15T12:38:35.711Z,27.60
2019-02-15T12:41:04.099Z,27.40
2019-02-15T12:43:32.881Z,28.00
2019-02-15T12:46:01.334Z,27.60
2019-02-15T12:48:29.772Z,27.30
2019-02-15T12:50:58.172Z,27.70
2019-02-15T12:53:26.548Z,27.20
2019-02-15T12:55:54.939Z,26.60
2019-02-15T12:58:23.350Z,27.00
2019-02-15T13:00:51.707Z,26.70
2019-02-15T13:03:20.106Z,26.30
2019-02-15T13:05:48.472Z,27.00
2019-02-15T13:08:16.859Z,27.10
2019-02-15T13:10:45.227Z,26.70
2019-02-15T13:13:13.608Z,27.50
2019-02-15T13:15:43.962Z,27.90
2019-02-15T13:18:12.101Z,27.40
2019-02-15T13:20:40.496Z,27.70
2019-02-15T13:23:08.873Z,28.40
2019-02-15T13:25:37.496Z,27.50
2019-02-15T13:28:05.876Z,28.10
2019-02-15T13:30:34.264Z,27.50
2019-02-15T13:33:02.646Z,27.60
2019-02-15T13:35:31.270Z,26.90
2019-02-15T13:37:59.653Z,27.90
2019-02-15T13:40:28.034Z,26.60
2019-02-15T13:42:56.416Z,26.30
2019-02-15T13:45:24.800Z,25.40
2019-02-15T13:47:53.187Z,24.90
2019-02-15T13:50:21.572Z,26.00
2019-02-15T13:52:50.033Z,26.40
2019-02-15T13:55:18.415Z,26.70
2019-02-15T13:57:46.804Z,26.70
2019-02-15T14:00:15.347Z,26.10
2019-02-15T14:02:43.736Z,27.40
2019-02-15T14:05:12.855Z,27.10
2019-02-15T14:07:41.324Z,28.30
2019-02-15T14:10:14.327Z,28.60
2019-02-15T14:12:42.760Z,28.60
2019-02-15T14:15:12.412Z,29.50
2019-02-15T14:17:45.246Z,29.00
2019-02-15T14:20:13.214Z,29.40
2019-02-15T14:22:41.580Z,28.80
2019-02-15T14:25:13.428Z,28.30
2019-02-15T14:27:41.823Z,28.10
2019-02-15T14:30:11.843Z,28.40
2019-02-15T14:32:40.402Z,27.90
2019-02-15T14:35:10.321Z,28.50
2019-02-15T14:37:38.712Z,28.70
2019-02-15T14:40:12.044Z,29.00
2019-02-15T14:42:40.437Z,28.50
2019-02-15T14:45:10.760Z,29.60
2019-02-15T14:47:39.154Z,31.00
2019-02-15T14:50:11.153Z,31.10
2019-02-15T14:52:39.595Z,30.80
2019-02-15T14:55:09.517Z,31.40
2019-02-15T14:57:37.896Z,31.90
2019-02-15T15:00:14.302Z,31.70
2019-02-15T15:02:42.680Z,31.50
2019-02-15T15:05:13.277Z,31.20
2019-02-15T15:07:41.735Z,32.00
2019-02-15T15:10:11.067Z,33.00
2019-02-15T15:12:39.446Z,32.60
2019-02-15T15:15:13.907Z,31.90
2019-02-15T15:17:42.283Z,31.90
2019-02-15T15:20:12.014Z,32.20
2019-02-15T15:22:40.388Z,32.40
2019-02-15T15:25:13.639Z,33.00
2019-02-15T15:27:42.030Z,32.70
2019-02-15T15:30:12.460Z,33.40
2019-02-15T15:32:40.858Z,33.50
2019-02-15T15:35:10.768Z,34.30
2019-02-15T15:37:39.155Z,35.00
2019-02-15T15:40:10.481Z,35.90
2019-02-15T15:42:38.928Z,36.10
2019-02-15T15:45:09.459Z,36.40
2019-02-15T15:47:37.836Z,36.50
2019-02-15T15:50:08.504Z,36.20
2019-02-15T15:52:36.907Z,36.40
2019-02-15T15:55:06.834Z,36.90
2019-02-15T15:57:35.212Z,37.60
2019-02-15T16:00:04.778Z,38.30
2019-02-15T16:02:33.159Z,38.20
2019-02-15T16:05:01.555Z,38.10
2019-02-15T16:07:29.935Z,38.50
2019-02-15T16:09:58.320Z,38.00
2019-02-15T16:12:26.728Z,37.60
2019-02-15T16:14:55.162Z,38.20
2019-02-15T16:17:25.203Z,38.70
2019-02-15T16:19:53.580Z,39.00
2019-02-15T16:22:21.961Z,39.10
2019-02-15T16:24:50.356Z,39.20
2019-02-15T16:27:18.723Z,39.40
2019-02-15T16:29:47.108Z,40.20
2019-02-15T16:32:15.720Z,40.90
2019-02-15T16:34:44.112Z,41.90
2019-02-15T16:37:12.488Z,43.00
2019-02-15T16:39:40.948Z,43.40
2019-02-15T16:42:09.338Z,44.20
2019-02-15T16:44:37.735Z,45.40
2019-02-15T16:47:06.119Z,46.70
2019-02-15T16:49:34.514Z,47.80
2019-02-15T16:52:02.949Z,49.80
2019-02-15T16:54:31.366Z,51.70
2019-02-15T16:56:59.735Z,53.40
2019-02-15T16:59:28.117Z,54.50
2019-02-15T17:01:56.496Z,56.40
2019-02-15T17:04:24.879Z,57.00
2019-02-15T17:06:53.268Z,58.20
2019-02-15T17:09:21.880Z,58.60
2019-02-15T17:11:50.269Z,59.40
2019-02-15T17:14:18.884Z,60.00
2019-02-15T17:16:47.272Z,61.00
2019-02-15T17:19:15.666Z,61.60
2019-02-15T17:21:44.051Z,62.20
2019-02-15T17:24:12.457Z,62.00
2019-02-15T17:26:40.895Z,62.40
2019-02-15T17:29:09.271Z,63.50
2019-02-15T17:31:37.664Z,62.90
2019-02-15T17:34:06.038Z,63.30
2019-02-15T17:36:34.424Z,64.00
2019-02-15T17:39:02.874Z,65.20
2019-02-15T17:41:31.251Z,65.80
2019-02-15T17:43:59.642Z,66.60
2019-02-15T17:46:28.020Z,67.00
2019-02-15T17:49:00.783Z,67.30
2019-02-15T17:51:26.542Z,67.40
2019-02-15T17:53:54.904Z,67.30
2019-02-15T17:56:23.292Z,67.20
2019-02-15T17:58:51.671Z,67.40
2019-02-15T18:01:20.069Z,67.30
2019-02-15T18:03:48.724Z,67.30
2019-02-15T18:06:17.096Z,66.90
2019-02-15T18:08:45.488Z,66.90
2019-02-15T18:11:14.144Z,66.70
2019-02-15T18:13:42.536Z,66.50
2019-02-15T18:16:10.914Z,67.60
2019-02-15T18:18:39.306Z,67.10
2019-02-15T18:21:07.680Z,67.10
2019-02-15T18:23:36.293Z,67.30
2019-02-15T18:26:04.680Z,67.30
2019-02-15T18:28:33.064Z,67.30
2019-02-15T18:31:01.447Z,68.00
2019-02-15T18:33:30.047Z,68.40
2019-02-15T18:35:58.432Z,68.60
2019-02-15T18:38:26.810Z,69.20
2019-02-15T18:40:55.192Z,70.00
2019-02-15T18:43:23.566Z,70.30
2019-02-15T18:45:51.948Z,70.90
2019-02-15T18:48:20.335Z,71.10
2019-02-15T18:50:48.711Z,72.10
2019-02-15T18:53:17.104Z,72.30
2019-02-15T18:55:45.494Z,73.10
2019-02-15T18:58:13.877Z,73.60
2019-02-15T19:00:42.495Z,74.10
2019-02-15T19:03:10.867Z,74.40
2019-02-15T19:05:39.246Z,74.90
2019-02-15T19:08:07.660Z,75.30
2019-02-15T19:10:36.019Z,76.10
2019-02-15T19:13:04.391Z,76.70
2019-02-15T19:15:32.795Z,76.80
2019-02-15T19:18:01.163Z,77.10
2019-02-15T19:20:29.547Z,77.20
2019-02-15T19:22:57.919Z,77.50
2019-02-15T19:25:26.296Z,77.40
2019-02-15T19:27:54.692Z,77.40
2019-02-15T19:30:29.082Z,77.20
2019-02-15T19:32:57.451Z,77.40
2019-02-15T19:35:25.844Z,77.30
2019-02-15T19:37:54.221Z,77.70
2019-02-15T19:40:22.587Z,78.30
2019-02-15T19:42:53.787Z,78.40
2019-02-15T19:45:22.171Z,78.70
2019-02-15T19:47:50.551Z,78.80
2019-02-15T19:50:18.959Z,79.20
2019-02-15T19:52:48.535Z,79.60
2019-02-15T19:55:16.936Z,80.10
2019-02-15T19:57:45.312Z,80.00
2019-02-15T20:00:16.683Z,79.80
2019-02-15T20:02:45.047Z,80.00
2019-02-15T20:05:13.492Z,80.40
2019-02-15T20:07:41.876Z,81.60
2019-02-15T20:10:18.294Z,82.20
2019-02-15T20:12:46.680Z,83.10
2019-02-15T20:15:15.134Z,83.60
2019-02-15T20:17:43.521Z,83.30
2019-02-15T20:20:13.541Z,83.50
2019-02-15T20:22:41.916Z,83.30
2019-02-15T20:25:11.944Z,83.80
2019-02-15T20:27:40.329Z,84.10
2019-02-15T20:30:19.903Z,85.00
2019-02-15T20:32:48.280Z,85.70
2019-02-15T20:35:16.651Z,86.00
2019-02-15T20:37:45.051Z,85.90
2019-02-15T20:40:13.980Z,85.20
2019-02-15T20:42:42.360Z,85.90
2019-02-15T20:45:19.000Z,86.30
2019-02-15T20:47:47.380Z,86.20
2019-02-15T20:50:16.008Z,85.70
2019-02-15T20:52:44.385Z,86.00
2019-02-15T20:55:19.663Z,86.30
2019-02-15T20:57:48.087Z,86.40
2019-02-15T21:00:24.775Z,86.30
2019-02-15T21:02:53.144Z,86.30
2019-02-15T21:05:21.523Z,86.40
2019-02-15T21:07:49.907Z,86.30
2019-02-15T21:10:18.284Z,86.80
2019-02-15T21:12:46.678Z,86.40
2019-02-15T21:15:15.494Z,87.00
2019-02-15T21:17:43.867Z,87.80
2019-02-15T21:20:13.494Z,88.40
2019-02-15T21:22:41.864Z,88.70
2019-02-15T21:25:12.201Z,89.00
2019-02-15T21:27:40.575Z,89.50
2019-02-15T21:30:14.743Z,89.20
2019-02-15T21:32:43.200Z,89.00
2019-02-15T21:35:11.598Z,88.50
2019-02-15T21:37:39.976Z,89.20
2019-02-15T21:40:11.202Z,88.70
2019-02-15T21:42:39.589Z,88.90
2019-02-15T21:45:10.008Z,88.90
2019-02-15T21:47:38.396Z,88.80
2019-02-15T21:50:16.740Z,88.40
2019-02-15T21:52:44.247Z,89.40
2019-02-15T21:55:11.063Z,88.30
2019-02-15T21:57:39.692Z,88.20
2019-02-15T22:00:16.801Z,88.20
2019-02-15T22:02:45.188Z,88.70
2019-02-15T22:05:13.571Z,89.20
2019-02-15T22:07:41.939Z,89.10
2019-02-15T22:10:10.398Z,89.00
2019-02-15T22:12:38.789Z,88.70
2019-02-15T22:15:12.428Z,88.20
2019-02-15T22:17:40.873Z,88.60
2019-02-15T22:20:12.176Z,88.20
2019-02-15T22:22:40.531Z,88.50
2019-02-15T22:25:09.052Z,88.40
2019-02-15T22:27:37.437Z,88.50
2019-02-15T22:30:09.120Z,88.60
2019-02-15T22:32:37.579Z,88.60
2019-02-15T22:35:07.299Z,88.30
2019-02-15T22:37:35.668Z,88.00
2019-02-15T22:40:35.451Z,88.10
2019-02-15T22:43:16.123Z,88.20
2019-02-15T22:45:44.511Z,88.30
2019-02-15T22:48:12.883Z,88.70
2019-02-15T22:50:41.259Z,88.30
2019-02-15T22:53:09.644Z,88.20
2019-02-15T22:55:38.029Z,87.80
2019-02-15T22:58:06.397Z,87.90
2019-02-15T23:00:39.736Z,88.30
2019-02-15T23:03:08.108Z,88.40
2019-02-15T23:05:36.496Z,88.20
2019-02-15T23:08:04.881Z,87.60
2019-02-15T23:10:33.252Z,88.10
2019-02-15T23:13:01.636Z,88.20
2019-02-15T23:15:30.037Z,89.00
2019-02-15T23:17:58.415Z,89.30
2019-02-15T23:20:26.816Z,88.90
2019-02-15T23:22:55.183Z,88.90
2019-02-15T23:25:25.041Z,88.90
2019-02-15T23:27:53.620Z,88.80
2019-02-15T23:30:22.003Z,88.50
2019-02-15T23:32:50.386Z,88.50
2019-02-15T23:35:18.773Z,88.80
2019-02-15T23:37:47.167Z,89.40
2019-02-15T23:40:15.520Z,89.40
2019-02-15T23:42:43.915Z,89.20
2019-02-15T23:45:12.292Z,88.80
2019-02-15T23:47:40.675Z,88.10
2019-02-15T23:50:09.820Z,88.60
2019-02-15T23:52:38.207Z,88.00
2019-02-15T23:55:06.584Z,87.80
2019-02-15T23:57:34.972Z,87.60
